Main page
METAR-TAF:

METAR-TAF

Airports :

Hong Kong International Airport

Hong Kong, China

latitude: 22-19N, longitude: 113-55E, elevation: 9 m

Current weather observation

The report was made 41 minutes ago, at 11:00 UTC
Wind 12 kt from the East
Temperature 19°C
Humidity 49%
Pressure 1024 hPa
Visibility 10 km or more
no clouds below 1500 m and no cumulonimbus

METAR: VHHH 201100Z 10012KT CAVOK 19/08 Q1024 NOSIG

Time: 19:41 (11:41 UTC)

Forecast

The report was made 41 minutes ago, at 11:00 UTC
Forecast valid from 20 at 12 UTC to 21 at 18 UTC
Wind 10 kt from the East
Visibility 10 km or more
Few clouds at a height of 3500 ft
Temporary
from 21 at 03 UTC to 21 at 09 UTC
Wind 10 kt from the West

TAF: VHHH 201100Z 2012/2118 08010KT 9999 FEW035 TX23/2106Z TN16/2023Z TEMPO 2103/2109 27010KT

Weather observations and forecasts of more than 4000 airports (METAR and TAF reports).

The available stations are represented by yellow and red dots on the map.

Hover mouse over dot to see the name of the station.

Then click to see weather observations and forecasts.

To change the map : click on the green buttons with a black cross to zoom in, on the green button with a dash to zoom out, or on the green arrows for adjacent maps.


METAR-TAF: